sensor_id;sensor_type;location;lat;lon;timestamp;P1;durP1;ratioP1;P2;durP2;ratioP2
46607;SDS011;32330;51.936;7.184;2023-11-19T00:00:30;17.35;;;15.70;;
46607;SDS011;32330;51.936;7.184;2023-11-19T00:02:57;19.17;;;17.38;;
46607;SDS011;32330;51.936;7.184;2023-11-19T00:05:24;17.75;;;15.93;;
46607;SDS011;32330;51.936;7.184;2023-11-19T00:07:52;18.15;;;16.20;;
46607;SDS011;32330;51.936;7.184;2023-11-19T00:10:21;17.10;;;15.30;;
46607;SDS011;32330;51.936;7.184;2023-11-19T00:12:48;15.65;;;13.95;;
46607;SDS011;32330;51.936;7.184;2023-11-19T00:15:16;17.08;;;15.38;;
46607;SDS011;32330;51.936;7.184;2023-11-19T00:17:44;16.25;;;14.57;;
46607;SDS011;32330;51.936;7.184;2023-11-19T00:20:11;17.73;;;15.88;;
46607;SDS011;32330;51.936;7.184;2023-11-19T00:22:39;17.23;;;15.40;;
46607;SDS011;32330;51.936;7.184;2023-11-19T00:25:07;19.67;;;17.67;;
46607;SDS011;32330;51.936;7.184;2023-11-19T00:27:35;21.35;;;18.42;;
46607;SDS011;32330;51.936;7.184;2023-11-19T00:30:04;18.90;;;17.00;;
46607;SDS011;32330;51.936;7.184;2023-11-19T00:32:32;17.10;;;15.40;;
46607;SDS011;32330;51.936;7.184;2023-11-19T00:34:59;20.02;;;17.08;;
46607;SDS011;32330;51.936;7.184;2023-11-19T00:37:27;17.63;;;15.85;;
46607;SDS011;32330;51.936;7.184;2023-11-19T00:39:54;21.95;;;19.10;;
46607;SDS011;32330;51.936;7.184;2023-11-19T00:42:21;20.52;;;18.48;;
46607;SDS011;32330;51.936;7.184;2023-11-19T00:44:50;19.20;;;17.27;;
46607;SDS011;32330;51.936;7.184;2023-11-19T00:47:17;24.38;;;21.77;;
46607;SDS011;32330;51.936;7.184;2023-11-19T00:49:45;21.25;;;19.10;;
46607;SDS011;32330;51.936;7.184;2023-11-19T00:52:13;23.27;;;20.27;;
46607;SDS011;32330;51.936;7.184;2023-11-19T00:54:41;22.48;;;19.98;;
46607;SDS011;32330;51.936;7.184;2023-11-19T00:57:08;20.73;;;18.52;;
46607;SDS011;32330;51.936;7.184;2023-11-19T00:59:35;28.17;;;23.67;;
46607;SDS011;32330;51.936;7.184;2023-11-19T01:02:03;27.23;;;22.40;;
46607;SDS011;32330;51.936;7.184;2023-11-19T01:04:33;30.20;;;22.50;;
46607;SDS011;32330;51.936;7.184;2023-11-19T01:07:01;27.33;;;22.88;;
46607;SDS011;32330;51.936;7.184;2023-11-19T01:09:30;25.75;;;22.52;;
46607;SDS011;32330;51.936;7.184;2023-11-19T01:11:59;28.95;;;24.35;;
46607;SDS011;32330;51.936;7.184;2023-11-19T01:14:27;27.83;;;22.35;;
46607;SDS011;32330;51.936;7.184;2023-11-19T01:16:54;28.55;;;24.45;;
46607;SDS011;32330;51.936;7.184;2023-11-19T01:19:22;27.75;;;21.52;;
46607;SDS011;32330;51.936;7.184;2023-11-19T01:21:49;26.10;;;22.38;;
46607;SDS011;32330;51.936;7.184;2023-11-19T01:24:16;27.50;;;23.10;;
46607;SDS011;32330;51.936;7.184;2023-11-19T01:26:43;21.73;;;19.50;;
46607;SDS011;32330;51.936;7.184;2023-11-19T01:29:12;23.77;;;21.27;;
46607;SDS011;32330;51.936;7.184;2023-11-19T01:31:40;26.05;;;22.35;;
46607;SDS011;32330;51.936;7.184;2023-11-19T01:34:06;26.85;;;22.73;;
46607;SDS011;32330;51.936;7.184;2023-11-19T01:36:35;23.77;;;21.20;;
46607;SDS011;32330;51.936;7.184;2023-11-19T01:39:02;21.05;;;18.02;;
46607;SDS011;32330;51.936;7.184;2023-11-19T01:41:33;22.10;;;19.33;;
46607;SDS011;32330;51.936;7.184;2023-11-19T01:44:01;21.52;;;19.20;;
46607;SDS011;32330;51.936;7.184;2023-11-19T01:46:28;23.45;;;18.48;;
46607;SDS011;32330;51.936;7.184;2023-11-19T01:48:55;22.10;;;18.75;;
46607;SDS011;32330;51.936;7.184;2023-11-19T01:51:23;21.77;;;19.23;;
46607;SDS011;32330;51.936;7.184;2023-11-19T01:53:51;25.38;;;19.85;;
46607;SDS011;32330;51.936;7.184;2023-11-19T01:56:19;23.52;;;18.35;;
46607;SDS011;32330;51.936;7.184;2023-11-19T01:58:47;26.42;;;18.27;;
46607;SDS011;32330;51.936;7.184;2023-11-19T02:01:16;22.65;;;19.05;;
46607;SDS011;32330;51.936;7.184;2023-11-19T02:03:43;19.95;;;17.27;;
46607;SDS011;32330;51.936;7.184;2023-11-19T02:06:10;21.05;;;17.70;;
46607;SDS011;32330;51.936;7.184;2023-11-19T02:08:38;17.60;;;15.80;;
46607;SDS011;32330;51.936;7.184;2023-11-19T02:11:06;18.10;;;15.65;;
46607;SDS011;32330;51.936;7.184;2023-11-19T02:13:33;14.45;;;12.88;;
46607;SDS011;32330;51.936;7.184;2023-11-19T02:16:01;21.58;;;13.05;;
46607;SDS011;32330;51.936;7.184;2023-11-19T02:18:29;19.33;;;13.65;;
46607;SDS011;32330;51.936;7.184;2023-11-19T02:20:57;16.77;;;10.02;;
46607;SDS011;32330;51.936;7.184;2023-11-19T02:23:25;17.23;;;11.90;;
46607;SDS011;32330;51.936;7.184;2023-11-19T02:26:02;15.00;;;10.32;;
46607;SDS011;32330;51.936;7.184;2023-11-19T02:28:40;16.40;;;10.15;;
46607;SDS011;32330;51.936;7.184;2023-11-19T02:31:11;20.33;;;11.15;;
46607;SDS011;32330;51.936;7.184;2023-11-19T02:33:38;15.60;;;8.60;;
46607;SDS011;32330;51.936;7.184;2023-11-19T02:36:06;20.50;;;10.25;;
46607;SDS011;32330;51.936;7.184;2023-11-19T02:38:34;14.82;;;9.10;;
46607;SDS011;32330;51.936;7.184;2023-11-19T02:41:02;14.90;;;8.20;;
46607;SDS011;32330;51.936;7.184;2023-11-19T02:43:31;14.32;;;8.68;;
46607;SDS011;32330;51.936;7.184;2023-11-19T02:46:01;15.90;;;7.22;;
46607;SDS011;32330;51.936;7.184;2023-11-19T02:48:28;12.45;;;7.78;;
46607;SDS011;32330;51.936;7.184;2023-11-19T02:50:55;19.35;;;7.93;;
46607;SDS011;32330;51.936;7.184;2023-11-19T02:53:24;14.70;;;6.85;;
46607;SDS011;32330;51.936;7.184;2023-11-19T02:55:52;18.55;;;7.47;;
46607;SDS011;32330;51.936;7.184;2023-11-19T02:58:26;15.15;;;6.20;;
46607;SDS011;32330;51.936;7.184;2023-11-19T03:00:54;11.30;;;5.80;;
46607;SDS011;32330;51.936;7.184;2023-11-19T03:03:26;15.98;;;5.43;;
46607;SDS011;32330;51.936;7.184;2023-11-19T03:06:03;13.45;;;6.93;;
46607;SDS011;32330;51.936;7.184;2023-11-19T03:08:31;10.40;;;5.55;;
46607;SDS011;32330;51.936;7.184;2023-11-19T03:10:58;14.65;;;6.47;;
46607;SDS011;32330;51.936;7.184;2023-11-19T03:13:25;15.40;;;6.22;;
46607;SDS011;32330;51.936;7.184;2023-11-19T03:15:52;11.30;;;5.63;;
46607;SDS011;32330;51.936;7.184;2023-11-19T03:18:20;12.25;;;5.45;;
46607;SDS011;32330;51.936;7.184;2023-11-19T03:20:48;14.90;;;4.78;;
46607;SDS011;32330;51.936;7.184;2023-11-19T03:23:15;13.55;;;5.63;;
46607;SDS011;32330;51.936;7.184;2023-11-19T03:25:42;13.13;;;5.85;;
46607;SDS011;32330;51.936;7.184;2023-11-19T03:28:09;14.25;;;5.43;;
46607;SDS011;32330;51.936;7.184;2023-11-19T03:30:37;17.95;;;5.35;;
46607;SDS011;32330;51.936;7.184;2023-11-19T03:33:04;16.83;;;5.50;;
46607;SDS011;32330;51.936;7.184;2023-11-19T03:35:31;15.55;;;5.00;;
46607;SDS011;32330;51.936;7.184;2023-11-19T03:38:00;15.05;;;4.55;;
46607;SDS011;32330;51.936;7.184;2023-11-19T03:40:27;14.38;;;4.28;;
46607;SDS011;32330;51.936;7.184;2023-11-19T03:42:55;15.32;;;5.15;;
46607;SDS011;32330;51.936;7.184;2023-11-19T03:45:22;12.15;;;4.35;;
46607;SDS011;32330;51.936;7.184;2023-11-19T03:47:50;14.70;;;4.68;;
46607;SDS011;32330;51.936;7.184;2023-11-19T03:50:16;13.05;;;4.53;;
46607;SDS011;32330;51.936;7.184;2023-11-19T03:52:45;13.73;;;4.85;;
46607;SDS011;32330;51.936;7.184;2023-11-19T03:55:13;15.55;;;4.72;;
46607;SDS011;32330;51.936;7.184;2023-11-19T03:57:40;20.42;;;4.43;;
46607;SDS011;32330;51.936;7.184;2023-11-19T04:00:07;16.60;;;4.45;;
46607;SDS011;32330;51.936;7.184;2023-11-19T04:02:38;20.08;;;4.03;;
46607;SDS011;32330;51.936;7.184;2023-11-19T04:05:06;20.88;;;5.28;;
46607;SDS011;32330;51.936;7.184;2023-11-19T04:07:33;21.40;;;4.30;;
46607;SDS011;32330;51.936;7.184;2023-11-19T04:10:00;23.20;;;3.90;;
46607;SDS011;32330;51.936;7.184;2023-11-19T04:12:28;25.08;;;4.22;;
46607;SDS011;32330;51.936;7.184;2023-11-19T04:14:55;20.92;;;4.00;;
46607;SDS011;32330;51.936;7.184;2023-11-19T04:17:22;22.63;;;4.43;;
46607;SDS011;32330;51.936;7.184;2023-11-19T04:19:49;21.25;;;4.47;;
46607;SDS011;32330;51.936;7.184;2023-11-19T04:22:16;20.15;;;4.32;;
46607;SDS011;32330;51.936;7.184;2023-11-19T04:24:44;22.85;;;4.53;;
46607;SDS011;32330;51.936;7.184;2023-11-19T04:27:11;20.42;;;4.80;;
46607;SDS011;32330;51.936;7.184;2023-11-19T04:29:40;15.40;;;3.80;;
46607;SDS011;32330;51.936;7.184;2023-11-19T04:32:07;17.05;;;4.28;;
46607;SDS011;32330;51.936;7.184;2023-11-19T04:34:34;22.92;;;4.72;;
46607;SDS011;32330;51.936;7.184;2023-11-19T04:37:02;17.80;;;3.58;;
46607;SDS011;32330;51.936;7.184;2023-11-19T04:39:29;20.75;;;4.57;;
46607;SDS011;32330;51.936;7.184;2023-11-19T04:41:56;16.73;;;3.95;;
46607;SDS011;32330;51.936;7.184;2023-11-19T04:44:24;25.92;;;5.10;;
46607;SDS011;32330;51.936;7.184;2023-11-19T04:46:52;20.10;;;4.38;;
46607;SDS011;32330;51.936;7.184;2023-11-19T04:49:19;19.95;;;4.13;;
46607;SDS011;32330;51.936;7.184;2023-11-19T04:51:46;20.98;;;4.70;;
46607;SDS011;32330;51.936;7.184;2023-11-19T04:54:13;20.98;;;4.53;;
46607;SDS011;32330;51.936;7.184;2023-11-19T04:56:40;23.33;;;5.30;;
46607;SDS011;32330;51.936;7.184;2023-11-19T04:59:11;22.23;;;4.25;;
46607;SDS011;32330;51.936;7.184;2023-11-19T05:01:37;22.10;;;5.18;;
46607;SDS011;32330;51.936;7.184;2023-11-19T05:04:07;21.17;;;6.00;;
46607;SDS011;32330;51.936;7.184;2023-11-19T05:06:34;18.02;;;4.35;;
46607;SDS011;32330;51.936;7.184;2023-11-19T05:09:01;24.85;;;6.20;;
46607;SDS011;32330;51.936;7.184;2023-11-19T05:11:30;19.95;;;5.07;;
46607;SDS011;32330;51.936;7.184;2023-11-19T05:13:56;21.20;;;5.00;;
46607;SDS011;32330;51.936;7.184;2023-11-19T05:16:24;25.60;;;5.38;;
46607;SDS011;32330;51.936;7.184;2023-11-19T05:18:51;24.13;;;5.70;;
46607;SDS011;32330;51.936;7.184;2023-11-19T05:21:19;24.60;;;5.32;;
46607;SDS011;32330;51.936;7.184;2023-11-19T05:23:46;28.02;;;5.38;;
46607;SDS011;32330;51.936;7.184;2023-11-19T05:26:17;24.10;;;5.57;;
46607;SDS011;32330;51.936;7.184;2023-11-19T05:28:45;27.05;;;5.30;;
46607;SDS011;32330;51.936;7.184;2023-11-19T05:31:12;22.42;;;5.35;;
46607;SDS011;32330;51.936;7.184;2023-11-19T05:33:39;26.48;;;6.40;;
46607;SDS011;32330;51.936;7.184;2023-11-19T05:36:06;24.88;;;5.25;;
46607;SDS011;32330;51.936;7.184;2023-11-19T05:38:35;27.35;;;5.10;;
46607;SDS011;32330;51.936;7.184;2023-11-19T05:41:02;22.02;;;4.90;;
46607;SDS011;32330;51.936;7.184;2023-11-19T05:43:30;23.55;;;4.70;;
46607;SDS011;32330;51.936;7.184;2023-11-19T05:45:57;27.50;;;5.70;;
46607;SDS011;32330;51.936;7.184;2023-11-19T05:48:25;24.73;;;5.35;;
46607;SDS011;32330;51.936;7.184;2023-11-19T05:50:52;24.55;;;6.80;;
46607;SDS011;32330;51.936;7.184;2023-11-19T05:53:20;30.42;;;5.28;;
46607;SDS011;32330;51.936;7.184;2023-11-19T05:55:48;17.70;;;5.25;;
46607;SDS011;32330;51.936;7.184;2023-11-19T05:58:21;28.67;;;5.25;;
46607;SDS011;32330;51.936;7.184;2023-11-19T06:00:50;30.88;;;5.88;;
46607;SDS011;32330;51.936;7.184;2023-11-19T06:03:17;28.20;;;5.38;;
46607;SDS011;32330;51.936;7.184;2023-11-19T06:05:44;22.13;;;5.80;;
46607;SDS011;32330;51.936;7.184;2023-11-19T06:08:11;24.80;;;5.32;;
46607;SDS011;32330;51.936;7.184;2023-11-19T06:10:39;20.65;;;5.60;;
46607;SDS011;32330;51.936;7.184;2023-11-19T06:13:08;27.60;;;4.88;;
46607;SDS011;32330;51.936;7.184;2023-11-19T06:15:36;30.92;;;5.28;;
46607;SDS011;32330;51.936;7.184;2023-11-19T06:18:03;29.52;;;5.35;;
46607;SDS011;32330;51.936;7.184;2023-11-19T06:20:31;30.25;;;5.80;;
46607;SDS011;32330;51.936;7.184;2023-11-19T06:22:58;26.83;;;5.00;;
46607;SDS011;32330;51.936;7.184;2023-11-19T06:25:26;24.13;;;4.72;;
46607;SDS011;32330;51.936;7.184;2023-11-19T06:27:53;35.00;;;6.22;;
46607;SDS011;32330;51.936;7.184;2023-11-19T06:30:21;27.92;;;5.13;;
46607;SDS011;32330;51.936;7.184;2023-11-19T06:32:48;24.05;;;5.10;;
46607;SDS011;32330;51.936;7.184;2023-11-19T06:35:15;23.63;;;5.13;;
46607;SDS011;32330;51.936;7.184;2023-11-19T06:37:41;24.20;;;5.20;;
46607;SDS011;32330;51.936;7.184;2023-11-19T06:40:09;21.25;;;4.60;;
46607;SDS011;32330;51.936;7.184;2023-11-19T06:42:37;26.38;;;5.47;;
46607;SDS011;32330;51.936;7.184;2023-11-19T06:45:05;30.67;;;6.55;;
46607;SDS011;32330;51.936;7.184;2023-11-19T06:47:33;29.42;;;5.38;;
46607;SDS011;32330;51.936;7.184;2023-11-19T06:50:00;31.05;;;5.63;;
46607;SDS011;32330;51.936;7.184;2023-11-19T06:52:30;27.75;;;5.10;;
46607;SDS011;32330;51.936;7.184;2023-11-19T06:54:57;28.00;;;5.30;;
46607;SDS011;32330;51.936;7.184;2023-11-19T06:57:24;32.85;;;6.07;;
46607;SDS011;32330;51.936;7.184;2023-11-19T06:59:51;23.13;;;5.65;;
46607;SDS011;32330;51.936;7.184;2023-11-19T07:02:18;26.65;;;6.57;;
46607;SDS011;32330;51.936;7.184;2023-11-19T07:04:46;24.13;;;5.88;;
46607;SDS011;32330;51.936;7.184;2023-11-19T07:07:13;31.80;;;6.20;;
46607;SDS011;32330;51.936;7.184;2023-11-19T07:09:41;29.10;;;5.38;;
46607;SDS011;32330;51.936;7.184;2023-11-19T07:12:08;32.15;;;6.88;;
46607;SDS011;32330;51.936;7.184;2023-11-19T07:14:35;27.13;;;6.43;;
46607;SDS011;32330;51.936;7.184;2023-11-19T07:17:03;35.88;;;6.93;;
46607;SDS011;32330;51.936;7.184;2023-11-19T07:19:29;30.27;;;5.80;;
46607;SDS011;32330;51.936;7.184;2023-11-19T07:21:58;28.20;;;6.00;;
46607;SDS011;32330;51.936;7.184;2023-11-19T07:24:24;23.35;;;5.25;;
46607;SDS011;32330;51.936;7.184;2023-11-19T07:26:53;28.00;;;5.78;;
46607;SDS011;32330;51.936;7.184;2023-11-19T07:29:20;29.85;;;6.35;;
46607;SDS011;32330;51.936;7.184;2023-11-19T07:31:48;34.03;;;5.97;;
46607;SDS011;32330;51.936;7.184;2023-11-19T07:34:15;25.20;;;5.65;;
46607;SDS011;32330;51.936;7.184;2023-11-19T07:36:42;25.17;;;5.93;;
46607;SDS011;32330;51.936;7.184;2023-11-19T07:39:10;30.10;;;6.57;;
46607;SDS011;32330;51.936;7.184;2023-11-19T07:41:37;28.15;;;5.30;;
46607;SDS011;32330;51.936;7.184;2023-11-19T07:44:04;26.75;;;5.72;;
46607;SDS011;32330;51.936;7.184;2023-11-19T07:46:31;29.50;;;6.55;;
46607;SDS011;32330;51.936;7.184;2023-11-19T07:48:58;26.30;;;5.60;;
46607;SDS011;32330;51.936;7.184;2023-11-19T07:51:25;25.83;;;6.30;;
46607;SDS011;32330;51.936;7.184;2023-11-19T07:53:52;32.72;;;6.78;;
46607;SDS011;32330;51.936;7.184;2023-11-19T07:56:20;39.97;;;8.65;;
46607;SDS011;32330;51.936;7.184;2023-11-19T07:58:47;27.85;;;5.78;;
46607;SDS011;32330;51.936;7.184;2023-11-19T08:01:15;28.05;;;5.10;;
46607;SDS011;32330;51.936;7.184;2023-11-19T08:03:42;27.58;;;6.63;;
46607;SDS011;32330;51.936;7.184;2023-11-19T08:06:09;28.52;;;5.85;;
46607;SDS011;32330;51.936;7.184;2023-11-19T08:08:36;31.45;;;6.43;;
46607;SDS011;32330;51.936;7.184;2023-11-19T08:11:03;29.30;;;5.63;;
46607;SDS011;32330;51.936;7.184;2023-11-19T08:13:32;27.60;;;5.60;;
46607;SDS011;32330;51.936;7.184;2023-11-19T08:16:08;28.42;;;5.72;;
46607;SDS011;32330;51.936;7.184;2023-11-19T08:18:36;33.38;;;6.35;;
46607;SDS011;32330;51.936;7.184;2023-11-19T08:21:03;28.00;;;6.32;;
46607;SDS011;32330;51.936;7.184;2023-11-19T08:23:30;31.52;;;9.20;;
46607;SDS011;32330;51.936;7.184;2023-11-19T08:25:57;26.90;;;5.75;;
46607;SDS011;32330;51.936;7.184;2023-11-19T08:28:24;25.45;;;5.28;;
46607;SDS011;32330;51.936;7.184;2023-11-19T08:30:52;27.73;;;5.57;;
46607;SDS011;32330;51.936;7.184;2023-11-19T08:33:19;25.98;;;6.10;;
46607;SDS011;32330;51.936;7.184;2023-11-19T08:35:47;30.30;;;5.78;;
46607;SDS011;32330;51.936;7.184;2023-11-19T08:38:14;24.92;;;5.38;;
46607;SDS011;32330;51.936;7.184;2023-11-19T08:40:41;25.70;;;5.70;;
46607;SDS011;32330;51.936;7.184;2023-11-19T08:43:08;34.67;;;6.68;;
46607;SDS011;32330;51.936;7.184;2023-11-19T08:45:35;31.05;;;6.05;;
46607;SDS011;32330;51.936;7.184;2023-11-19T08:48:04;29.95;;;5.70;;
46607;SDS011;32330;51.936;7.184;2023-11-19T08:50:31;26.40;;;7.38;;
46607;SDS011;32330;51.936;7.184;2023-11-19T08:52:58;25.40;;;5.80;;
46607;SDS011;32330;51.936;7.184;2023-11-19T08:55:25;30.95;;;6.55;;
46607;SDS011;32330;51.936;7.184;2023-11-19T08:57:52;29.13;;;8.07;;
46607;SDS011;32330;51.936;7.184;2023-11-19T09:00:19;30.15;;;6.85;;
46607;SDS011;32330;51.936;7.184;2023-11-19T09:02:46;28.77;;;6.68;;
46607;SDS011;32330;51.936;7.184;2023-11-19T09:05:14;27.20;;;5.82;;
46607;SDS011;32330;51.936;7.184;2023-11-19T09:07:41;28.77;;;5.22;;
46607;SDS011;32330;51.936;7.184;2023-11-19T09:10:08;28.10;;;5.68;;
46607;SDS011;32330;51.936;7.184;2023-11-19T09:12:36;36.22;;;6.75;;
46607;SDS011;32330;51.936;7.184;2023-11-19T09:15:04;33.50;;;7.32;;
46607;SDS011;32330;51.936;7.184;2023-11-19T09:17:31;31.27;;;6.03;;
46607;SDS011;32330;51.936;7.184;2023-11-19T09:19:58;26.23;;;6.13;;
46607;SDS011;32330;51.936;7.184;2023-11-19T09:22:27;27.33;;;5.50;;
46607;SDS011;32330;51.936;7.184;2023-11-19T09:24:54;37.13;;;7.97;;
46607;SDS011;32330;51.936;7.184;2023-11-19T09:27:20;30.98;;;7.40;;
46607;SDS011;32330;51.936;7.184;2023-11-19T09:29:47;24.63;;;5.85;;
46607;SDS011;32330;51.936;7.184;2023-11-19T09:32:16;26.08;;;5.85;;
46607;SDS011;32330;51.936;7.184;2023-11-19T09:34:43;30.55;;;6.65;;
46607;SDS011;32330;51.936;7.184;2023-11-19T09:37:10;28.50;;;6.38;;
46607;SDS011;32330;51.936;7.184;2023-11-19T09:39:38;22.42;;;5.47;;
46607;SDS011;32330;51.936;7.184;2023-11-19T09:42:08;29.30;;;5.75;;
46607;SDS011;32330;51.936;7.184;2023-11-19T09:44:35;30.77;;;5.65;;
46607;SDS011;32330;51.936;7.184;2023-11-19T09:47:04;31.20;;;5.43;;
46607;SDS011;32330;51.936;7.184;2023-11-19T09:49:32;27.08;;;6.40;;
46607;SDS011;32330;51.936;7.184;2023-11-19T09:51:59;26.63;;;5.82;;
46607;SDS011;32330;51.936;7.184;2023-11-19T09:54:26;28.65;;;6.53;;
46607;SDS011;32330;51.936;7.184;2023-11-19T09:56:54;39.05;;;6.82;;
46607;SDS011;32330;51.936;7.184;2023-11-19T09:59:25;29.73;;;6.60;;
46607;SDS011;32330;51.936;7.184;2023-11-19T10:01:52;32.45;;;6.10;;
46607;SDS011;32330;51.936;7.184;2023-11-19T10:04:20;27.90;;;6.18;;
46607;SDS011;32330;51.936;7.184;2023-11-19T10:06:47;26.77;;;6.25;;
46607;SDS011;32330;51.936;7.184;2023-11-19T10:09:14;31.75;;;6.82;;
46607;SDS011;32330;51.936;7.184;2023-11-19T10:11:41;25.15;;;6.88;;
46607;SDS011;32330;51.936;7.184;2023-11-19T10:14:09;35.17;;;6.22;;
46607;SDS011;32330;51.936;7.184;2023-11-19T10:16:37;31.00;;;5.95;;
46607;SDS011;32330;51.936;7.184;2023-11-19T10:19:04;24.13;;;6.07;;
46607;SDS011;32330;51.936;7.184;2023-11-19T10:21:32;32.70;;;5.97;;
46607;SDS011;32330;51.936;7.184;2023-11-19T10:23:59;26.98;;;5.57;;
46607;SDS011;32330;51.936;7.184;2023-11-19T10:26:26;34.67;;;7.38;;
46607;SDS011;32330;51.936;7.184;2023-11-19T10:28:54;31.05;;;5.93;;
46607;SDS011;32330;51.936;7.184;2023-11-19T10:31:23;25.38;;;6.35;;
46607;SDS011;32330;51.936;7.184;2023-11-19T10:33:51;24.55;;;5.93;;
46607;SDS011;32330;51.936;7.184;2023-11-19T10:36:19;36.03;;;6.63;;
46607;SDS011;32330;51.936;7.184;2023-11-19T10:38:51;26.50;;;6.00;;
46607;SDS011;32330;51.936;7.184;2023-11-19T10:41:26;31.13;;;5.45;;
46607;SDS011;32330;51.936;7.184;2023-11-19T10:43:53;31.58;;;6.10;;
46607;SDS011;32330;51.936;7.184;2023-11-19T10:46:20;28.38;;;7.50;;
46607;SDS011;32330;51.936;7.184;2023-11-19T10:48:49;29.73;;;6.03;;
46607;SDS011;32330;51.936;7.184;2023-11-19T10:51:18;30.30;;;6.13;;
46607;SDS011;32330;51.936;7.184;2023-11-19T10:53:48;33.35;;;6.32;;
46607;SDS011;32330;51.936;7.184;2023-11-19T10:56:16;35.13;;;6.63;;
46607;SDS011;32330;51.936;7.184;2023-11-19T10:58:47;30.33;;;6.90;;
46607;SDS011;32330;51.936;7.184;2023-11-19T11:01:18;33.65;;;6.60;;
46607;SDS011;32330;51.936;7.184;2023-11-19T11:03:47;30.05;;;5.82;;
46607;SDS011;32330;51.936;7.184;2023-11-19T11:06:17;25.67;;;5.80;;
46607;SDS011;32330;51.936;7.184;2023-11-19T11:08:45;29.27;;;7.05;;
46607;SDS011;32330;51.936;7.184;2023-11-19T11:11:13;28.77;;;6.18;;
46607;SDS011;32330;51.936;7.184;2023-11-19T11:13:46;33.45;;;6.57;;
46607;SDS011;32330;51.936;7.184;2023-11-19T11:16:15;26.23;;;6.15;;
46607;SDS011;32330;51.936;7.184;2023-11-19T11:18:45;25.15;;;6.63;;
46607;SDS011;32330;51.936;7.184;2023-11-19T11:21:15;28.58;;;5.43;;
46607;SDS011;32330;51.936;7.184;2023-11-19T11:23:55;26.48;;;5.32;;
46607;SDS011;32330;51.936;7.184;2023-11-19T11:29:24;26.45;;;6.60;;
46607;SDS011;32330;51.936;7.184;2023-11-19T11:31:59;28.38;;;5.72;;
46607;SDS011;32330;51.936;7.184;2023-11-19T11:34:42;31.42;;;5.55;;
46607;SDS011;32330;51.936;7.184;2023-11-19T11:37:23;25.85;;;5.50;;
46607;SDS011;32330;51.936;7.184;2023-11-19T11:39:57;20.67;;;4.78;;
46607;SDS011;32330;51.936;7.184;2023-11-19T11:42:34;36.67;;;6.90;;
46607;SDS011;32330;51.936;7.184;2023-11-19T11:45:02;30.30;;;6.55;;
46607;SDS011;32330;51.936;7.184;2023-11-19T11:50:48;28.48;;;6.53;;
46607;SDS011;32330;51.936;7.184;2023-11-19T11:53:18;27.05;;;6.32;;
46607;SDS011;32330;51.936;7.184;2023-11-19T11:56:00;23.48;;;5.93;;
46607;SDS011;32330;51.936;7.184;2023-11-19T11:58:29;22.02;;;5.55;;
46607;SDS011;32330;51.936;7.184;2023-11-19T12:00:58;24.33;;;5.38;;
46607;SDS011;32330;51.936;7.184;2023-11-19T12:03:27;26.00;;;6.10;;
46607;SDS011;32330;51.936;7.184;2023-11-19T12:05:56;25.35;;;6.07;;
46607;SDS011;32330;51.936;7.184;2023-11-19T12:08:26;23.70;;;5.90;;
46607;SDS011;32330;51.936;7.184;2023-11-19T12:10:55;23.45;;;5.88;;
46607;SDS011;32330;51.936;7.184;2023-11-19T12:13:42;24.67;;;5.10;;
46607;SDS011;32330;51.936;7.184;2023-11-19T12:16:14;22.90;;;5.00;;
46607;SDS011;32330;51.936;7.184;2023-11-19T12:18:41;26.30;;;5.22;;
46607;SDS011;32330;51.936;7.184;2023-11-19T12:21:08;19.23;;;5.15;;
46607;SDS011;32330;51.936;7.184;2023-11-19T12:23:45;29.88;;;6.55;;
46607;SDS011;32330;51.936;7.184;2023-11-19T12:26:32;21.20;;;5.18;;
46607;SDS011;32330;51.936;7.184;2023-11-19T12:29:00;21.35;;;5.18;;
46607;SDS011;32330;51.936;7.184;2023-11-19T12:31:29;22.60;;;5.15;;
46607;SDS011;32330;51.936;7.184;2023-11-19T12:33:56;20.20;;;4.88;;
46607;SDS011;32330;51.936;7.184;2023-11-19T12:36:23;27.17;;;5.47;;
46607;SDS011;32330;51.936;7.184;2023-11-19T12:38:52;20.33;;;4.43;;
46607;SDS011;32330;51.936;7.184;2023-11-19T12:41:19;20.80;;;4.68;;
46607;SDS011;32330;51.936;7.184;2023-11-19T12:43:48;20.55;;;5.47;;
46607;SDS011;32330;51.936;7.184;2023-11-19T12:46:17;27.08;;;5.15;;
46607;SDS011;32330;51.936;7.184;2023-11-19T12:48:45;21.75;;;4.78;;
46607;SDS011;32330;51.936;7.184;2023-11-19T12:51:12;24.55;;;5.55;;
46607;SDS011;32330;51.936;7.184;2023-11-19T12:53:47;28.15;;;5.70;;
46607;SDS011;32330;51.936;7.184;2023-11-19T12:56:16;23.15;;;4.68;;
46607;SDS011;32330;51.936;7.184;2023-11-19T12:58:43;23.27;;;4.63;;
46607;SDS011;32330;51.936;7.184;2023-11-19T13:01:14;22.15;;;5.07;;
46607;SDS011;32330;51.936;7.184;2023-11-19T13:03:42;22.52;;;4.80;;
46607;SDS011;32330;51.936;7.184;2023-11-19T13:06:10;15.73;;;4.03;;
46607;SDS011;32330;51.936;7.184;2023-11-19T13:08:39;22.92;;;4.90;;
46607;SDS011;32330;51.936;7.184;2023-11-19T13:11:08;22.88;;;4.80;;
46607;SDS011;32330;51.936;7.184;2023-11-19T13:13:55;21.50;;;5.10;;
46607;SDS011;32330;51.936;7.184;2023-11-19T13:16:24;24.20;;;4.75;;
46607;SDS011;32330;51.936;7.184;2023-11-19T13:18:51;19.83;;;4.10;;
46607;SDS011;32330;51.936;7.184;2023-11-19T13:21:18;20.77;;;4.25;;
46607;SDS011;32330;51.936;7.184;2023-11-19T13:23:45;24.92;;;5.60;;
46607;SDS011;32330;51.936;7.184;2023-11-19T13:26:12;22.98;;;5.35;;
46607;SDS011;32330;51.936;7.184;2023-11-19T13:28:39;17.45;;;3.95;;
46607;SDS011;32330;51.936;7.184;2023-11-19T13:31:07;21.35;;;4.72;;
46607;SDS011;32330;51.936;7.184;2023-11-19T13:33:35;24.48;;;4.45;;
46607;SDS011;32330;51.936;7.184;2023-11-19T13:36:02;19.75;;;4.40;;
46607;SDS011;32330;51.936;7.184;2023-11-19T13:38:32;24.65;;;5.35;;
46607;SDS011;32330;51.936;7.184;2023-11-19T13:41:00;18.02;;;4.47;;
46607;SDS011;32330;51.936;7.184;2023-11-19T13:43:27;18.90;;;3.97;;
46607;SDS011;32330;51.936;7.184;2023-11-19T13:45:54;16.55;;;3.88;;
46607;SDS011;32330;51.936;7.184;2023-11-19T13:48:22;15.50;;;3.30;;
46607;SDS011;32330;51.936;7.184;2023-11-19T13:50:49;21.15;;;3.90;;
46607;SDS011;32330;51.936;7.184;2023-11-19T13:53:17;16.58;;;3.30;;
46607;SDS011;32330;51.936;7.184;2023-11-19T13:55:43;21.05;;;4.03;;
46607;SDS011;32330;51.936;7.184;2023-11-19T13:58:10;23.08;;;4.30;;
46607;SDS011;32330;51.936;7.184;2023-11-19T14:00:37;19.92;;;4.00;;
46607;SDS011;32330;51.936;7.184;2023-11-19T14:03:07;16.77;;;4.18;;
46607;SDS011;32330;51.936;7.184;2023-11-19T14:05:36;17.58;;;4.75;;
46607;SDS011;32330;51.936;7.184;2023-11-19T14:08:03;20.20;;;3.78;;
46607;SDS011;32330;51.936;7.184;2023-11-19T14:10:36;19.52;;;4.38;;
46607;SDS011;32330;51.936;7.184;2023-11-19T14:13:05;19.42;;;4.28;;
46607;SDS011;32330;51.936;7.184;2023-11-19T14:15:32;16.35;;;3.72;;
46607;SDS011;32330;51.936;7.184;2023-11-19T14:18:00;17.77;;;4.13;;
46607;SDS011;32330;51.936;7.184;2023-11-19T14:20:28;17.85;;;4.10;;
46607;SDS011;32330;51.936;7.184;2023-11-19T14:22:56;13.90;;;4.10;;
46607;SDS011;32330;51.936;7.184;2023-11-19T14:25:23;16.05;;;3.38;;
46607;SDS011;32330;51.936;7.184;2023-11-19T14:27:50;19.60;;;5.20;;
46607;SDS011;32330;51.936;7.184;2023-11-19T14:30:17;17.63;;;4.00;;
46607;SDS011;32330;51.936;7.184;2023-11-19T14:32:44;13.40;;;3.60;;
46607;SDS011;32330;51.936;7.184;2023-11-19T14:35:11;15.00;;;3.20;;
46607;SDS011;32330;51.936;7.184;2023-11-19T14:37:38;17.40;;;4.03;;
46607;SDS011;32330;51.936;7.184;2023-11-19T14:40:06;15.32;;;3.47;;
46607;SDS011;32330;51.936;7.184;2023-11-19T14:42:35;15.32;;;3.60;;
46607;SDS011;32330;51.936;7.184;2023-11-19T14:45:02;17.85;;;3.60;;